Accueil
METAR-TAF:

METAR-TAF

Aéroports :

Aéroport de Santorin

Santorin, Grèce

latitude: 36-24N, longitude: 025-29E, altitude: 38 m

Observation

Le bulletin a été fait il y a 41 minutes, à 06:20 UTC
Vent 13 kt de nord
Température 19°C
Humidité 78%
Pression 1016 hPa
Visibilité 10 km ou plus
Nuages fragmentés à une hauteur de 1800 ft

METAR: LGSR 170620Z 35013KT 9999 BKN018 19/15 Q1016

Heure: 10:01 (07:01 UTC)

Prévision

Le bulletin a été fait il y a 2 heures et 1 minutes, à 05:00 UTC
Prévision valable du 17 à 06 UTC au 18 à 06 UTC
Vent 15 kt de nord-ouest
Visibilité 10 km ou plus
Nuages épars à une hauteur de 1800 ft

TAF: LGSR 170500Z 1706/1806 32015KT 9999 SCT018

Observations et prévisions météorologiques de plus de 4000 aéroports (messages METAR et TAF).

Les stations disponibles sont représentées par des disques jaunes et rouges sur la carte.

Passer la souris dessus pour voir le nom de la station.

Cliquer dessus pour voir les observations et prévisions météorologiques.

Pour changer de carte: cliquez sur les boutons verts avec une croix noire pour zoomer, sur le bouton vert avec un tiret pour effectuer un zoom arrière, ou sur les flèches vertes pour les cartes adjacentes.


METAR-TAF: